EGGW

London Luton Airport

London, United Kingdom
METAR EGGW 161020Z AUTO 28006KT 9999 NCD 01/M01 Q1017
Observed Flight Rules
Dec-16 @ 10:20 UTC (48 minutes ago) Visual Flight Rules
Wind Visibility Clouds
280° at 6 knots 10,000+ meters
  • Clear skies
Temperatures Readings
Current 1°C / 34°F
Dewpoint -1°C / 30°F
Humidity 87%
Altimeter 30.03" Hg
Pressure 1017 hPa
Elevation 160
METAR EGGW 161020Z AUTO 28006KT 9999 NCD 01/M01 Q1017
Observed Flight Rules
Dec-16 @ 10:20 UTC
(48 minutes ago)
VFR
Wind Visibility
280° at 6 knots 10,000+ meters
Clouds
  • Clear skies
Temperature Dewpoint
1°C / 34°F -1°C / 30°F
Humidity Altimeter Pressure
87% 30.03" Hg 1017 hPa